createdAt,value
2022-08-22T00:00:46.349Z,98.21
2022-08-22T00:01:46.344Z,98.36
2022-08-22T00:02:42.057Z,74.55
2022-08-22T00:02:45.443Z,77.27
2022-08-22T00:02:56.262Z,81.38
2022-08-22T00:02:58.483Z,87.95
2022-08-22T00:03:04.652Z,79.86
2022-08-22T00:03:07.041Z,97.20
2022-08-22T00:03:07.585Z,98.62
2022-08-22T00:03:15.659Z,95.18
2022-08-22T00:03:15.720Z,96.30
2022-08-22T00:03:15.839Z,98.72
2022-08-22T00:03:48.326Z,98.72
2022-08-22T00:04:46.375Z,98.52
2022-08-22T00:05:46.304Z,98.32
2022-08-22T00:06:46.297Z,98.11
2022-08-22T00:07:46.290Z,98.46
2022-08-22T00:08:46.311Z,98.46
2022-08-22T00:09:46.269Z,98.66
2022-08-22T00:10:46.263Z,98.66
2022-08-22T00:11:46.265Z,98.66
2022-08-22T00:12:46.243Z,99.78
2022-08-22T00:13:46.257Z,99.38
2022-08-22T00:14:46.229Z,99.99
2022-08-22T00:15:46.219Z,99.99
2022-08-22T00:16:46.212Z,99.99
2022-08-22T00:17:46.195Z,99.99
2022-08-22T00:18:46.235Z,99.99
2022-08-22T00:19:46.179Z,99.99
2022-08-22T00:20:46.179Z,99.99
2022-08-22T00:21:46.165Z,99.93
2022-08-22T00:22:46.161Z,99.99
2022-08-22T00:23:46.176Z,99.99
2022-08-22T00:24:46.140Z,99.99
2022-08-22T00:25:46.135Z,99.99
2022-08-22T00:26:46.120Z,99.99
2022-08-22T00:27:46.119Z,99.99
2022-08-22T00:28:46.136Z,99.99
2022-08-22T00:29:46.095Z,99.99
2022-08-22T00:30:46.083Z,99.99
2022-08-22T00:31:46.077Z,99.99
2022-08-22T00:32:46.095Z,99.99
2022-08-22T00:33:46.108Z,99.99
2022-08-22T00:34:46.052Z,99.99
2022-08-22T00:35:46.045Z,99.99
2022-08-22T00:36:47.733Z,99.93
2022-08-22T00:37:46.036Z,99.99
2022-08-22T00:38:46.049Z,99.99
2022-08-22T00:39:46.081Z,99.99
2022-08-22T00:40:46.000Z,99.73
2022-08-22T00:41:45.990Z,99.99
2022-08-22T00:42:45.988Z,99.99
2022-08-22T00:43:46.028Z,99.99
2022-08-22T00:44:45.996Z,99.88
2022-08-22T00:45:45.959Z,99.99
2022-08-22T00:46:45.948Z,99.77
2022-08-22T00:47:45.938Z,99.99
2022-08-22T00:48:45.934Z,99.99
2022-08-22T00:49:45.957Z,99.99
2022-08-22T00:50:45.914Z,99.99
2022-08-22T00:51:45.952Z,99.99
2022-08-22T00:52:45.895Z,99.99
2022-08-22T00:53:45.897Z,99.99
2022-08-22T00:54:45.913Z,99.98
2022-08-22T00:55:45.872Z,99.57
2022-08-22T00:56:46.006Z,99.99
2022-08-22T00:57:45.856Z,99.99
2022-08-22T00:58:45.877Z,99.99
2022-08-22T00:59:45.840Z,99.99
2022-08-22T01:00:45.833Z,99.99
2022-08-22T01:01:45.824Z,99.99
2022-08-22T01:02:50.437Z,99.99
2022-08-22T01:03:47.846Z,99.99
2022-08-22T01:04:45.813Z,99.88
2022-08-22T01:05:45.794Z,99.99
2022-08-22T01:06:45.780Z,99.99
2022-08-22T01:07:45.792Z,99.99
2022-08-22T01:08:45.793Z,99.99
2022-08-22T01:09:45.766Z,99.99
2022-08-22T01:10:45.749Z,99.99
2022-08-22T01:11:45.735Z,99.99
2022-08-22T01:12:45.732Z,99.99
2022-08-22T01:13:45.757Z,99.99
2022-08-22T01:14:45.718Z,99.99
2022-08-22T01:15:45.705Z,99.99
2022-08-22T01:16:45.694Z,99.99
2022-08-22T01:17:45.764Z,99.99
2022-08-22T01:18:45.723Z,99.99
2022-08-22T01:19:45.680Z,99.99
2022-08-22T01:20:45.669Z,99.99
2022-08-22T01:21:45.653Z,99.99
2022-08-22T01:22:45.655Z,99.99
2022-08-22T01:23:45.687Z,99.99
2022-08-22T01:24:45.625Z,99.99
2022-08-22T01:25:45.640Z,99.99
2022-08-22T01:26:45.622Z,99.99
2022-08-22T01:27:45.609Z,99.99
2022-08-22T01:28:45.633Z,99.99
2022-08-22T01:29:45.586Z,99.99
2022-08-22T01:30:45.583Z,99.99
2022-08-22T01:31:45.575Z,99.99
2022-08-22T01:32:45.561Z,99.99
2022-08-22T01:33:45.588Z,99.99
2022-08-22T01:34:45.543Z,99.99
2022-08-22T01:35:45.542Z,99.99
2022-08-22T01:36:45.531Z,99.99
2022-08-22T01:37:45.521Z,99.99
2022-08-22T01:38:45.543Z,99.99
2022-08-22T01:39:45.538Z,99.99
2022-08-22T01:40:53.559Z,99.99
2022-08-22T01:41:46.491Z,99.99
2022-08-22T01:42:45.480Z,99.99
2022-08-22T01:44:00.401Z,99.99
2022-08-22T01:44:46.498Z,99.99
2022-08-22T01:45:45.471Z,99.99
2022-08-22T01:46:45.452Z,99.99
2022-08-22T01:47:45.440Z,99.99
2022-08-22T01:48:45.429Z,99.99
2022-08-22T01:49:45.452Z,99.99
2022-08-22T01:50:45.418Z,99.99
2022-08-22T01:51:45.404Z,99.99
2022-08-22T01:52:45.397Z,99.99
2022-08-22T01:53:45.389Z,99.99
2022-08-22T01:54:45.400Z,99.99
2022-08-22T01:55:45.373Z,99.99
2022-08-22T01:56:45.365Z,99.99
2022-08-22T01:57:45.358Z,99.99
2022-08-22T01:58:45.351Z,99.99
2022-08-22T01:59:45.363Z,99.99
2022-08-22T02:00:45.355Z,99.99
2022-08-22T02:01:45.319Z,99.99
2022-08-22T02:02:45.310Z,99.99
2022-08-22T02:03:45.304Z,99.99
2022-08-22T02:04:45.331Z,99.99
2022-08-22T02:05:45.306Z,99.99
2022-08-22T02:06:45.276Z,99.99
2022-08-22T02:07:45.267Z,99.99
2022-08-22T02:08:45.264Z,99.99
2022-08-22T02:09:45.281Z,99.99
2022-08-22T02:10:45.244Z,99.99
2022-08-22T02:11:45.238Z,99.99
2022-08-22T02:12:45.222Z,99.99
2022-08-22T02:13:45.254Z,99.99
2022-08-22T02:14:45.209Z,99.99
2022-08-22T02:15:45.196Z,99.99
2022-08-22T02:16:45.206Z,99.99
2022-08-22T02:17:45.193Z,99.99
2022-08-22T02:18:45.172Z,99.99
2022-08-22T02:19:45.207Z,99.99
2022-08-22T02:20:45.158Z,99.99
2022-08-22T02:21:45.152Z,99.99
2022-08-22T02:22:45.133Z,99.99
2022-08-22T02:23:45.141Z,99.99
2022-08-22T02:24:45.153Z,99.99
2022-08-22T02:25:45.113Z,99.99
2022-08-22T02:26:45.103Z,99.99
2022-08-22T02:27:45.104Z,99.99
2022-08-22T02:28:57.479Z,99.99
2022-08-22T02:29:46.105Z,99.99
2022-08-22T02:30:45.076Z,99.99
2022-08-22T02:31:45.070Z,99.99
2022-08-22T02:32:45.052Z,99.99
2022-08-22T02:33:45.047Z,99.99
2022-08-22T02:34:45.069Z,99.99
2022-08-22T02:35:45.030Z,99.99
2022-08-22T02:36:45.025Z,99.99
2022-08-22T02:37:45.014Z,99.99
2022-08-22T02:38:45.023Z,99.99
2022-08-22T02:39:45.062Z,99.99
2022-08-22T02:40:44.981Z,99.99
2022-08-22T02:41:44.977Z,99.99
2022-08-22T02:42:44.971Z,99.99
2022-08-22T02:43:44.960Z,99.99
2022-08-22T02:44:44.984Z,99.99
2022-08-22T02:45:44.951Z,99.99
2022-08-22T02:46:44.938Z,99.99
2022-08-22T02:47:44.934Z,99.99
2022-08-22T02:48:44.924Z,99.99
2022-08-22T02:49:44.950Z,99.99
2022-08-22T02:50:44.910Z,99.99
2022-08-22T02:51:44.896Z,99.99
2022-08-22T02:52:44.891Z,99.99
2022-08-22T02:53:44.896Z,99.99
2022-08-22T02:54:44.891Z,99.99
2022-08-22T02:55:44.867Z,99.99
2022-08-22T02:56:44.857Z,99.99
2022-08-22T02:57:44.842Z,99.99
2022-08-22T02:58:44.843Z,99.99
2022-08-22T02:59:44.864Z,99.99
2022-08-22T03:00:44.866Z,99.99
2022-08-22T03:01:44.803Z,99.99
2022-08-22T03:02:44.802Z,99.99
2022-08-22T03:03:44.795Z,99.99
2022-08-22T03:04:44.813Z,99.99
2022-08-22T03:05:44.793Z,99.99
2022-08-22T03:07:03.755Z,99.99
2022-08-22T03:07:44.764Z,99.99
2022-08-22T03:08:51.026Z,99.99
2022-08-22T03:09:45.785Z,99.99
2022-08-22T03:10:44.743Z,99.99
2022-08-22T03:11:44.741Z,99.99
2022-08-22T03:12:44.727Z,99.99
2022-08-22T03:13:44.714Z,99.99
2022-08-22T03:14:44.743Z,99.99
2022-08-22T03:15:48.430Z,99.99
2022-08-22T03:16:44.693Z,99.99
2022-08-22T03:17:44.679Z,99.99
2022-08-22T03:18:45.361Z,99.99
2022-08-22T03:19:44.701Z,99.99
2022-08-22T03:20:44.663Z,99.99
2022-08-22T03:21:44.641Z,99.99
2022-08-22T03:22:44.644Z,99.99
2022-08-22T03:23:44.645Z,99.99
2022-08-22T03:24:44.668Z,99.99
2022-08-22T03:25:44.617Z,99.99
2022-08-22T03:26:44.623Z,99.99
2022-08-22T03:27:47.177Z,99.99
2022-08-22T03:28:59.207Z,99.99
2022-08-22T03:29:45.620Z,99.99
2022-08-22T03:30:44.573Z,99.99
2022-08-22T03:31:44.563Z,99.99
2022-08-22T03:32:44.554Z,99.99
2022-08-22T03:33:44.542Z,99.99
2022-08-22T03:34:44.545Z,99.99
2022-08-22T03:35:44.560Z,99.99
2022-08-22T03:36:44.526Z,99.99
2022-08-22T03:37:44.514Z,99.99
2022-08-22T03:38:44.514Z,99.99
2022-08-22T03:39:44.513Z,99.99
2022-08-22T03:40:44.520Z,99.99
2022-08-22T03:41:44.479Z,99.99
2022-08-22T03:42:44.471Z,99.99
2022-08-22T03:43:44.454Z,99.99
2022-08-22T03:44:44.451Z,99.99
2022-08-22T03:45:44.471Z,99.99
2022-08-22T03:46:44.447Z,99.99
2022-08-22T03:47:45.423Z,99.99
2022-08-22T03:49:03.297Z,99.99
2022-08-22T03:49:46.962Z,99.99
2022-08-22T03:50:45.431Z,99.99
2022-08-22T03:51:44.394Z,99.99
2022-08-22T03:52:44.386Z,99.99
2022-08-22T03:53:44.374Z,99.99
2022-08-22T03:54:44.368Z,99.99
2022-08-22T03:55:44.399Z,99.99
2022-08-22T03:56:44.345Z,99.99
2022-08-22T03:57:44.347Z,99.99
2022-08-22T03:58:44.332Z,99.99
2022-08-22T03:59:44.319Z,99.99
2022-08-22T04:00:44.399Z,99.99
2022-08-22T04:01:44.306Z,99.99
2022-08-22T04:02:44.453Z,99.99
2022-08-22T04:03:45.282Z,99.99
2022-08-22T04:04:44.277Z,99.99
2022-08-22T04:05:44.291Z,99.99
2022-08-22T04:06:44.256Z,99.99
2022-08-22T04:07:44.252Z,99.99
2022-08-22T04:08:44.772Z,99.99
2022-08-22T04:09:44.228Z,99.99
2022-08-22T04:10:44.265Z,99.99
2022-08-22T04:11:44.216Z,99.99
2022-08-22T04:12:44.216Z,99.99
2022-08-22T04:13:44.197Z,99.99
2022-08-22T04:14:44.187Z,99.99
2022-08-22T04:15:44.209Z,99.99
2022-08-22T04:16:44.170Z,99.99
2022-08-22T04:17:44.159Z,99.99
2022-08-22T04:18:44.154Z,99.99
2022-08-22T04:19:44.156Z,99.99
2022-08-22T04:20:44.169Z,99.99
2022-08-22T04:21:44.131Z,99.99
2022-08-22T04:22:44.121Z,99.99
2022-08-22T04:23:44.114Z,99.99
2022-08-22T04:24:44.107Z,99.99
2022-08-22T04:25:44.138Z,99.99
2022-08-22T04:26:44.104Z,99.99
2022-08-22T04:27:44.098Z,99.99
2022-08-22T04:28:44.075Z,99.99
2022-08-22T04:29:44.063Z,99.99
2022-08-22T04:30:44.095Z,99.99
2022-08-22T04:31:44.049Z,99.99
2022-08-22T04:32:44.042Z,99.99
2022-08-22T04:33:44.039Z,99.99
2022-08-22T04:34:44.023Z,99.99
2022-08-22T04:35:44.037Z,99.99
2022-08-22T04:36:44.012Z,99.99
2022-08-22T04:37:43.994Z,99.99
2022-08-22T04:38:43.988Z,99.99
2022-08-22T04:39:44.041Z,99.99
2022-08-22T04:40:43.999Z,99.99
2022-08-22T04:41:43.965Z,99.99
2022-08-22T04:42:43.957Z,99.99
2022-08-22T04:43:43.950Z,99.99
2022-08-22T04:44:43.934Z,99.99
2022-08-22T04:45:43.975Z,99.99
2022-08-22T04:46:43.926Z,99.99
2022-08-22T04:47:43.914Z,99.99
2022-08-22T04:48:43.906Z,99.99
2022-08-22T04:49:43.898Z,99.99
2022-08-22T04:50:43.919Z,99.99
2022-08-22T04:51:43.885Z,99.99
2022-08-22T04:52:43.889Z,99.99
2022-08-22T04:53:43.862Z,99.99
2022-08-22T04:54:44.549Z,99.99
2022-08-22T04:55:43.893Z,99.99
2022-08-22T04:56:43.833Z,99.99
2022-08-22T04:57:43.825Z,99.52
2022-08-22T04:58:43.838Z,99.83
2022-08-22T04:59:43.828Z,98.36
2022-08-22T05:00:43.845Z,95.98
2022-08-22T05:01:43.821Z,94.00
2022-08-22T05:02:43.789Z,93.90
2022-08-22T05:03:45.035Z,94.26
2022-08-22T05:04:44.781Z,93.61
2022-08-22T05:05:43.765Z,92.55
2022-08-22T05:06:43.769Z,91.85
2022-08-22T05:07:44.749Z,91.54
2022-08-22T05:08:43.735Z,92.14
2022-08-22T05:09:43.731Z,91.54
2022-08-22T05:10:43.723Z,91.30
2022-08-22T05:11:43.740Z,90.75
2022-08-22T05:12:43.713Z,90.75
2022-08-22T05:13:43.698Z,89.18
2022-08-22T05:14:43.687Z,88.13
2022-08-22T05:15:43.672Z,86.37
2022-08-22T05:16:43.698Z,86.57
2022-08-22T05:17:43.661Z,86.43
2022-08-22T05:18:43.651Z,85.22
2022-08-22T05:19:43.642Z,85.31
2022-08-22T05:20:43.637Z,85.76
2022-08-22T05:21:43.658Z,86.57
2022-08-22T05:22:43.620Z,86.07
2022-08-22T05:23:43.621Z,86.67
2022-08-22T05:24:43.599Z,88.09
2022-08-22T05:25:43.597Z,86.98
2022-08-22T05:26:43.610Z,86.93
2022-08-22T05:27:43.576Z,86.53
2022-08-22T05:28:43.587Z,86.13
2022-08-22T05:29:43.555Z,85.78
2022-08-22T05:30:43.560Z,86.08
2022-08-22T05:31:43.570Z,85.17
2022-08-22T05:32:43.533Z,86.22
2022-08-22T05:33:43.529Z,85.99
2022-08-22T05:34:43.514Z,85.24
2022-08-22T05:35:47.260Z,84.73
2022-08-22T05:36:45.612Z,85.24
2022-08-22T05:37:43.498Z,85.40
2022-08-22T05:38:43.495Z,84.55
2022-08-22T05:39:43.536Z,83.00
2022-08-22T05:40:43.460Z,82.90
2022-08-22T05:41:43.487Z,82.70
2022-08-22T05:42:43.448Z,82.15
2022-08-22T05:43:43.438Z,81.71
2022-08-22T05:44:43.431Z,80.80
2022-08-22T05:45:43.423Z,81.81
2022-08-22T05:46:43.450Z,80.43
2022-08-22T05:47:43.406Z,80.49
2022-08-22T05:48:43.649Z,79.88
2022-08-22T05:49:43.388Z,79.62
2022-08-22T05:50:43.384Z,80.29
2022-08-22T05:51:43.400Z,78.94
2022-08-22T05:52:43.358Z,78.50
2022-08-22T05:53:43.359Z,77.50
2022-08-22T05:54:43.346Z,77.73
2022-08-22T05:55:43.395Z,78.44
2022-08-22T05:56:43.358Z,77.63
2022-08-22T05:57:43.317Z,78.54
2022-08-22T05:58:43.323Z,78.46
2022-08-22T05:59:43.309Z,76.08
2022-08-22T06:00:43.301Z,74.88
2022-08-22T06:01:43.364Z,75.45
2022-08-22T06:02:43.285Z,73.90
2022-08-22T06:03:43.258Z,72.86
2022-08-22T06:04:44.264Z,74.44
2022-08-22T06:05:43.265Z,75.78
2022-08-22T06:06:43.273Z,76.18
2022-08-22T06:07:43.259Z,75.78
2022-08-22T06:08:43.227Z,76.68
2022-08-22T06:09:43.227Z,76.68
2022-08-22T06:10:43.218Z,76.04
2022-08-22T06:11:44.845Z,74.47
2022-08-22T06:12:44.204Z,74.24
2022-08-22T06:13:43.210Z,74.20
2022-08-22T06:14:43.176Z,73.16
2022-08-22T06:15:43.174Z,72.00
2022-08-22T06:16:47.513Z,71.66
2022-08-22T06:17:44.156Z,70.43
2022-08-22T06:18:43.148Z,70.66
2022-08-22T06:19:43.152Z,71.09
2022-08-22T06:20:43.130Z,72.69
2022-08-22T06:21:43.157Z,73.57
2022-08-22T06:22:43.112Z,73.16
2022-08-22T06:23:43.106Z,73.30
2022-08-22T06:24:43.099Z,72.36
2022-08-22T06:25:43.086Z,71.09
2022-08-22T06:26:45.234Z,69.32
2022-08-22T06:27:44.099Z,69.56
2022-08-22T06:28:55.242Z,69.43
2022-08-22T06:29:44.055Z,69.32
2022-08-22T06:30:43.058Z,69.36
2022-08-22T06:31:43.067Z,67.26
2022-08-22T06:32:59.148Z,66.53
2022-08-22T06:33:45.872Z,67.26
2022-08-22T06:34:44.016Z,68.19
2022-08-22T06:35:43.010Z,69.13
2022-08-22T06:37:01.485Z,68.93
2022-08-22T06:37:46.915Z,69.82
2022-08-22T06:38:42.975Z,69.49
2022-08-22T06:39:43.000Z,69.62
2022-08-22T06:40:47.433Z,69.59
2022-08-22T06:41:42.988Z,68.06
2022-08-22T06:42:42.995Z,67.73
2022-08-22T06:43:42.956Z,68.03
2022-08-22T06:44:42.950Z,67.33
2022-08-22T06:45:42.926Z,68.23
2022-08-22T06:46:42.947Z,67.03
2022-08-22T06:47:43.475Z,65.34
2022-08-22T06:48:43.899Z,64.81
2022-08-22T06:49:42.895Z,65.37
2022-08-22T06:50:42.890Z,66.90
2022-08-22T06:51:42.910Z,66.67
2022-08-22T06:52:42.866Z,67.17
2022-08-22T06:53:47.921Z,66.34
2022-08-22T06:54:43.849Z,66.83
2022-08-22T06:55:42.847Z,66.11
2022-08-22T06:56:42.878Z,65.84
2022-08-22T06:57:42.837Z,65.41
2022-08-22T06:58:42.829Z,65.31
2022-08-22T06:59:42.821Z,65.48
2022-08-22T07:00:42.819Z,66.14
2022-08-22T07:01:42.889Z,65.41
2022-08-22T07:02:42.805Z,65.91
2022-08-22T07:03:42.785Z,65.41
2022-08-22T07:04:42.784Z,65.78
2022-08-22T07:05:42.767Z,65.51
2022-08-22T07:06:42.791Z,65.01
2022-08-22T07:07:42.765Z,65.68
2022-08-22T07:08:42.743Z,65.11
2022-08-22T07:09:42.743Z,64.78
2022-08-22T07:10:42.726Z,64.45
2022-08-22T07:11:42.754Z,65.12
2022-08-22T07:12:42.716Z,64.42
2022-08-22T07:13:42.704Z,63.53
2022-08-22T07:14:42.701Z,63.67
2022-08-22T07:15:42.694Z,62.67
2022-08-22T07:16:42.745Z,63.27
2022-08-22T07:17:42.666Z,63.27
2022-08-22T07:18:42.670Z,63.40
2022-08-22T07:19:42.670Z,63.17
2022-08-22T07:20:42.666Z,63.67
2022-08-22T07:21:42.679Z,62.87
2022-08-22T07:22:42.634Z,61.69
2022-08-22T07:23:42.622Z,61.52
2022-08-22T07:24:42.612Z,62.45
2022-08-22T07:25:42.610Z,61.99
2022-08-22T07:26:42.599Z,61.99
2022-08-22T07:27:42.628Z,61.59
2022-08-22T07:28:51.528Z,61.59
2022-08-22T07:29:43.577Z,60.67
2022-08-22T07:30:42.578Z,60.77
2022-08-22T07:31:42.596Z,61.36
2022-08-22T07:32:42.569Z,62.35
2022-08-22T07:33:42.554Z,60.54
2022-08-22T07:34:42.545Z,59.92
2022-08-22T07:35:42.553Z,58.51
2022-08-22T07:36:43.557Z,57.77
2022-08-22T07:37:42.514Z,56.46
2022-08-22T07:38:42.506Z,56.95
2022-08-22T07:39:42.536Z,56.78
2022-08-22T07:40:42.487Z,56.09
2022-08-22T07:41:42.502Z,56.51
2022-08-22T07:42:42.503Z,56.61
2022-08-22T07:43:42.469Z,56.88
2022-08-22T07:44:42.463Z,55.96
2022-08-22T07:45:42.447Z,56.29
2022-08-22T07:46:42.457Z,55.94
2022-08-22T07:47:42.479Z,55.44
2022-08-22T07:49:05.934Z,55.96
2022-08-22T07:49:49.792Z,56.09
2022-08-22T07:50:43.413Z,56.16
2022-08-22T07:51:42.399Z,55.94
2022-08-22T07:52:42.428Z,55.15
2022-08-22T07:53:42.396Z,55.29
2022-08-22T07:54:42.378Z,53.99
2022-08-22T07:55:49.728Z,52.82
2022-08-22T07:56:43.368Z,52.26
2022-08-22T07:57:42.386Z,52.53
2022-08-22T07:58:42.352Z,52.16
2022-08-22T07:59:42.339Z,51.84
2022-08-22T08:00:42.331Z,51.69
2022-08-22T08:01:42.369Z,51.74
2022-08-22T08:02:42.348Z,51.74
2022-08-22T08:03:42.423Z,51.69
2022-08-22T08:04:42.307Z,51.74
2022-08-22T08:05:42.299Z,51.15
2022-08-22T08:06:42.295Z,51.89
2022-08-22T08:07:42.324Z,50.95
2022-08-22T08:08:42.283Z,50.29
2022-08-22T08:09:42.271Z,50.73
2022-08-22T08:10:42.266Z,50.44
2022-08-22T08:11:42.257Z,51.64
2022-08-22T08:12:42.292Z,50.07
2022-08-22T08:13:42.243Z,51.52
2022-08-22T08:14:42.234Z,49.70
2022-08-22T08:15:42.230Z,49.58
2022-08-22T08:16:42.222Z,48.55
2022-08-22T08:17:42.235Z,49.36
2022-08-22T08:18:42.192Z,48.69
2022-08-22T08:19:42.194Z,49.16
2022-08-22T08:20:42.185Z,47.67
2022-08-22T08:21:42.179Z,47.74
2022-08-22T08:22:42.209Z,48.03
2022-08-22T08:23:42.229Z,48.06
2022-08-22T08:24:42.491Z,47.35
2022-08-22T08:25:42.151Z,47.30
2022-08-22T08:26:42.145Z,47.30
2022-08-22T08:27:42.176Z,46.94
2022-08-22T08:28:42.134Z,46.33
2022-08-22T08:29:42.123Z,46.11
2022-08-22T08:30:42.115Z,45.42
2022-08-22T08:31:43.176Z,46.03
2022-08-22T08:32:42.128Z,45.81
2022-08-22T08:33:42.111Z,46.72
2022-08-22T08:34:42.083Z,46.56
2022-08-22T08:35:51.949Z,46.95
2022-08-22T08:36:43.088Z,45.86
2022-08-22T08:37:42.101Z,46.20
2022-08-22T08:38:42.072Z,45.40
2022-08-22T08:39:42.083Z,45.59
2022-08-22T08:40:42.042Z,46.69
2022-08-22T08:41:42.038Z,45.81
2022-08-22T08:42:42.057Z,45.83
2022-08-22T08:43:42.041Z,47.06
2022-08-22T08:44:42.016Z,47.84
2022-08-22T08:45:42.007Z,47.28
2022-08-22T08:46:41.997Z,47.28
2022-08-22T08:47:43.029Z,45.59
2022-08-22T08:48:42.025Z,45.08
2022-08-22T08:50:43.301Z,44.84
2022-08-22T08:51:41.965Z,44.16
2022-08-22T08:52:41.994Z,45.18
2022-08-22T08:53:43.356Z,44.77
2022-08-22T08:54:41.946Z,45.62
2022-08-22T08:55:41.940Z,45.69
2022-08-22T08:56:47.118Z,45.76
2022-08-22T08:57:42.951Z,44.79
2022-08-22T08:58:41.916Z,44.57
2022-08-22T08:59:44.483Z,44.77
2022-08-22T09:00:41.905Z,44.26
2022-08-22T09:01:41.981Z,43.92
2022-08-22T09:02:42.479Z,44.09
2022-08-22T09:03:41.957Z,43.88
2022-08-22T09:04:41.872Z,41.60
2022-08-22T09:05:41.887Z,41.77
2022-08-22T09:06:42.411Z,41.57
2022-08-22T09:07:41.896Z,40.97
2022-08-22T09:08:41.847Z,41.06
2022-08-22T09:09:41.840Z,40.37
2022-08-22T09:10:41.840Z,40.99
2022-08-22T09:11:41.840Z,41.46
2022-08-22T09:12:56.041Z,41.55
2022-08-22T09:13:42.821Z,40.13
2022-08-22T09:14:41.809Z,39.90
2022-08-22T09:15:41.800Z,39.14
2022-08-22T09:16:45.071Z,39.06
2022-08-22T09:17:42.827Z,41.05
2022-08-22T09:18:41.785Z,41.36
2022-08-22T09:19:41.773Z,41.16
2022-08-22T09:20:41.784Z,40.95
2022-08-22T09:21:41.761Z,40.95
2022-08-22T09:22:50.215Z,40.95
2022-08-22T09:23:43.246Z,40.15
2022-08-22T09:24:41.743Z,39.65
2022-08-22T09:25:41.742Z,39.03
2022-08-22T09:26:41.734Z,39.51
2022-08-22T09:27:41.761Z,38.85
2022-08-22T09:28:41.722Z,38.96
2022-08-22T09:29:55.191Z,38.91
2022-08-22T09:30:42.707Z,40.27
2022-08-22T09:31:48.087Z,39.36
2022-08-22T09:32:42.717Z,39.26
2022-08-22T09:33:41.683Z,38.95
2022-08-22T09:34:41.687Z,40.19
2022-08-22T09:35:41.680Z,39.88
2022-08-22T09:36:41.680Z,39.26
2022-08-22T09:38:09.654Z,39.18
2022-08-22T09:38:47.789Z,39.04
2022-08-22T09:39:42.683Z,39.16
2022-08-22T09:40:16.433Z,44.96
2022-08-22T09:40:41.669Z,39.41
2022-08-22T09:41:41.644Z,39.41
2022-08-22T09:42:45.015Z,39.59
2022-08-22T09:43:45.023Z,39.16
2022-08-22T09:44:42.620Z,38.98
2022-08-22T09:45:42.929Z,38.65
2022-08-22T09:46:41.610Z,38.07
2022-08-22T09:47:41.630Z,38.17
2022-08-22T09:48:42.499Z,36.87
2022-08-22T09:49:41.595Z,38.46
2022-08-22T09:50:41.583Z,38.40
2022-08-22T09:51:41.589Z,37.04
2022-08-22T09:52:41.610Z,37.93
2022-08-22T09:53:41.568Z,38.48
2022-08-22T09:54:41.559Z,36.50
2022-08-22T09:55:41.560Z,36.91
2022-08-22T09:56:41.554Z,37.63
2022-08-22T09:57:41.590Z,37.03
2022-08-22T09:58:41.885Z,36.64
2022-08-22T09:59:41.553Z,37.52
2022-08-22T10:00:41.560Z,37.97
2022-08-22T10:01:42.391Z,38.56
2022-08-22T10:02:43.320Z,37.93
2022-08-22T10:03:41.511Z,36.34
2022-08-22T10:04:42.034Z,35.74
2022-08-22T10:05:44.257Z,35.55
2022-08-22T10:06:42.496Z,35.63
2022-08-22T10:07:41.514Z,35.61
2022-08-22T10:08:41.485Z,35.43
2022-08-22T10:09:41.478Z,34.95
2022-08-22T10:10:41.464Z,35.61
2022-08-22T10:11:42.218Z,35.28
2022-08-22T10:12:41.477Z,35.01
2022-08-22T10:13:41.449Z,34.78
2022-08-22T10:14:41.441Z,34.09
2022-08-22T10:15:42.430Z,34.39
2022-08-22T10:16:41.426Z,33.76
2022-08-22T10:17:41.473Z,34.15
2022-08-22T10:18:52.522Z,35.40
2022-08-22T10:19:42.404Z,36.34
2022-08-22T10:20:41.402Z,37.82
2022-08-22T10:21:41.399Z,37.10
2022-08-22T10:22:41.419Z,36.91
2022-08-22T10:23:41.382Z,35.94
2022-08-22T10:24:43.794Z,36.60
2022-08-22T10:25:42.255Z,35.80
2022-08-22T10:26:41.367Z,35.55
2022-08-22T10:27:41.389Z,35.84
2022-08-22T10:28:41.353Z,37.56
2022-08-22T10:29:41.355Z,38.04
2022-08-22T10:30:41.356Z,39.47
2022-08-22T10:31:45.088Z,40.50
2022-08-22T10:32:43.356Z,40.23
2022-08-22T10:33:41.322Z,39.00
2022-08-22T10:34:41.326Z,39.28
2022-08-22T10:35:41.311Z,38.57
2022-08-22T10:36:41.300Z,38.75
2022-08-22T10:37:45.991Z,38.46
2022-08-22T10:38:46.319Z,38.20
2022-08-22T10:39:41.350Z,40.78
2022-08-22T10:40:41.285Z,41.78
2022-08-22T10:41:41.271Z,40.70
2022-08-22T10:42:41.739Z,41.60
2022-08-22T10:43:41.263Z,41.64
2022-08-22T10:44:41.257Z,43.62
2022-08-22T10:45:41.250Z,43.55
2022-08-22T10:46:42.278Z,44.16
2022-08-22T10:47:42.264Z,43.79
2022-08-22T10:48:41.225Z,44.18
2022-08-22T10:49:41.232Z,44.30
2022-08-22T10:50:41.210Z,43.66
2022-08-22T10:51:41.210Z,44.08
2022-08-22T10:52:41.227Z,42.60
2022-08-22T10:53:41.190Z,41.42
2022-08-22T10:54:41.193Z,41.41
2022-08-22T10:55:41.175Z,39.53
2022-08-22T10:56:41.170Z,39.45
2022-08-22T10:57:41.199Z,37.97
2022-08-22T10:58:41.174Z,38.56
2022-08-22T10:59:41.155Z,36.93
2022-08-22T11:00:46.208Z,37.57
2022-08-22T11:01:42.412Z,36.69
2022-08-22T11:02:42.326Z,36.66
2022-08-22T11:03:41.125Z,36.74
2022-08-22T11:04:41.134Z,35.94
2022-08-22T11:05:41.115Z,34.39
2022-08-22T11:06:41.103Z,34.77
2022-08-22T11:07:41.395Z,35.28
2022-08-22T11:08:41.103Z,35.24
2022-08-22T11:09:41.090Z,36.40
2022-08-22T11:10:41.077Z,37.48
2022-08-22T11:11:41.074Z,36.69
2022-08-22T11:12:41.668Z,37.06
2022-08-22T11:13:43.365Z,35.66
2022-08-22T11:14:41.044Z,35.14
2022-08-22T11:15:41.048Z,34.81
2022-08-22T11:16:41.777Z,34.28
2022-08-22T11:17:44.774Z,34.47
2022-08-22T11:18:43.016Z,34.65
2022-08-22T11:19:42.018Z,34.55
2022-08-22T11:20:41.015Z,33.87
2022-08-22T11:21:41.005Z,34.04
2022-08-22T11:22:41.037Z,34.75
2022-08-22T11:23:40.996Z,33.95
2022-08-22T11:24:55.946Z,34.11
2022-08-22T11:25:41.985Z,35.06
2022-08-22T11:26:47.741Z,36.40
2022-08-22T11:27:43.002Z,37.62
2022-08-22T11:28:40.972Z,36.61
2022-08-22T11:29:41.210Z,35.70
2022-08-22T11:30:45.207Z,35.58
2022-08-22T11:31:43.479Z,37.23
2022-08-22T11:32:41.967Z,38.30
2022-08-22T11:33:46.909Z,38.34
2022-08-22T11:34:41.940Z,38.53
2022-08-22T11:35:40.926Z,39.59
2022-08-22T11:36:40.917Z,41.33
2022-08-22T11:37:42.899Z,41.94
2022-08-22T11:38:40.907Z,41.05
2022-08-22T11:39:40.962Z,40.19
2022-08-22T11:40:41.890Z,38.49
2022-08-22T11:41:40.892Z,40.48
2022-08-22T11:42:47.426Z,40.33
2022-08-22T11:43:41.865Z,40.09
2022-08-22T11:44:50.513Z,39.26
2022-08-22T11:45:41.851Z,38.01
2022-08-22T11:46:40.859Z,37.58
2022-08-22T11:47:40.870Z,37.54
2022-08-22T11:48:40.849Z,36.77
2022-08-22T11:49:41.838Z,36.18
2022-08-22T11:50:42.217Z,35.76
2022-08-22T11:51:40.856Z,35.05
2022-08-22T11:52:40.823Z,35.22
2022-08-22T11:53:40.830Z,35.92
2022-08-22T11:54:42.247Z,37.08
2022-08-22T11:55:40.798Z,37.12
2022-08-22T11:56:41.615Z,37.96
2022-08-22T11:57:44.208Z,39.22
2022-08-22T11:58:40.774Z,38.79
2022-08-22T11:59:40.771Z,38.01
2022-08-22T12:00:40.769Z,36.87
2022-08-22T12:01:40.843Z,35.84
2022-08-22T12:02:40.847Z,35.63
2022-08-22T12:03:40.741Z,34.44
2022-08-22T12:04:43.994Z,35.61
2022-08-22T12:05:40.739Z,37.62
2022-08-22T12:06:40.754Z,37.05
2022-08-22T12:07:40.717Z,37.29
2022-08-22T12:08:40.720Z,38.45
2022-08-22T12:09:40.695Z,38.18
2022-08-22T12:10:40.689Z,38.38
2022-08-22T12:11:40.692Z,38.18
2022-08-22T12:12:42.272Z,39.14
2022-08-22T12:13:40.677Z,37.58
2022-08-22T12:14:40.671Z,37.46
2022-08-22T12:15:40.659Z,36.47
2022-08-22T12:16:40.656Z,36.46
2022-08-22T12:17:55.364Z,35.44
2022-08-22T12:18:41.643Z,36.94
2022-08-22T12:20:05.779Z,37.70
2022-08-22T12:20:45.418Z,36.69
2022-08-22T12:21:40.654Z,35.60
2022-08-22T12:22:40.622Z,36.00
2022-08-22T12:23:49.725Z,36.98
2022-08-22T12:24:41.603Z,38.40
2022-08-22T12:25:44.651Z,37.37
2022-08-22T12:26:40.732Z,36.19
2022-08-22T12:27:40.587Z,38.22
2022-08-22T12:28:41.580Z,37.30
2022-08-22T12:29:44.930Z,35.36
2022-08-22T12:30:40.578Z,34.88
2022-08-22T12:31:40.600Z,35.56
2022-08-22T12:32:43.698Z,34.71
2022-08-22T12:33:40.549Z,34.01
2022-08-22T12:34:41.600Z,32.89
2022-08-22T12:35:40.537Z,32.59
2022-08-22T12:36:40.565Z,33.43
2022-08-22T12:37:52.741Z,32.23
2022-08-22T12:38:41.516Z,32.42
2022-08-22T12:39:41.181Z,32.59
2022-08-22T12:40:43.636Z,32.45
2022-08-22T12:41:40.518Z,32.13
2022-08-22T12:42:41.948Z,30.68
2022-08-22T12:43:42.395Z,30.92